createdAt,value
2019-02-24T00:01:49.615Z,24.10
2019-02-24T00:04:18.468Z,25.27
2019-02-24T00:06:47.166Z,22.65
2019-02-24T00:09:15.775Z,24.00
2019-02-24T00:11:44.403Z,24.63
2019-02-24T00:14:13.275Z,24.18
2019-02-24T00:16:42.158Z,25.32
2019-02-24T00:19:10.790Z,23.05
2019-02-24T00:21:39.439Z,23.52
2019-02-24T00:24:08.173Z,22.85
2019-02-24T00:26:36.859Z,24.07
2019-02-24T00:29:05.530Z,23.47
2019-02-24T00:31:34.271Z,22.90
2019-02-24T00:34:02.924Z,23.50
2019-02-24T00:36:31.579Z,25.17
2019-02-24T00:39:00.245Z,23.80
2019-02-24T00:41:28.931Z,23.83
2019-02-24T00:43:58.162Z,24.67
2019-02-24T00:46:26.876Z,24.05
2019-02-24T00:48:55.591Z,24.05
2019-02-24T00:51:24.582Z,22.52
2019-02-24T00:53:53.291Z,22.58
2019-02-24T00:56:21.940Z,23.70
2019-02-24T00:58:50.918Z,23.50
2019-02-24T01:01:20.358Z,23.77
2019-02-24T01:03:49.063Z,22.52
2019-02-24T01:06:17.787Z,22.40
2019-02-24T01:08:46.792Z,21.52
2019-02-24T01:11:15.508Z,22.70
2019-02-24T01:13:44.314Z,22.17
2019-02-24T01:16:13.311Z,21.93
2019-02-24T01:18:42.151Z,23.00
2019-02-24T01:21:10.816Z,21.05
2019-02-24T01:23:39.774Z,24.20
2019-02-24T01:26:08.467Z,23.00
2019-02-24T01:28:37.144Z,21.95
2019-02-24T01:31:05.909Z,21.00
2019-02-24T01:33:34.581Z,19.65
2019-02-24T01:36:03.239Z,21.30
2019-02-24T01:38:31.888Z,20.35
2019-02-24T01:41:00.528Z,20.23
2019-02-24T01:43:29.210Z,21.25
2019-02-24T01:45:58.140Z,20.35
2019-02-24T01:48:27.146Z,19.50
2019-02-24T01:50:56.102Z,19.90
2019-02-24T01:53:24.772Z,18.27
2019-02-24T01:55:53.400Z,18.90
2019-02-24T01:58:22.395Z,18.45
2019-02-24T02:00:51.031Z,18.75
2019-02-24T02:03:20.004Z,18.30
2019-02-24T02:05:48.663Z,18.57
2019-02-24T02:08:17.319Z,21.37
2019-02-24T02:10:46.235Z,19.55
2019-02-24T02:13:14.883Z,19.55
2019-02-24T02:15:43.555Z,20.10
2019-02-24T02:18:12.219Z,20.10
2019-02-24T02:20:40.839Z,16.90
2019-02-24T02:23:09.495Z,18.02
2019-02-24T02:25:38.119Z,19.60
2019-02-24T02:28:06.841Z,19.80
2019-02-24T02:30:35.456Z,18.67
2019-02-24T02:33:04.168Z,18.73
2019-02-24T02:35:32.920Z,18.60
2019-02-24T02:38:01.883Z,18.57
2019-02-24T02:40:31.016Z,17.45
2019-02-24T02:42:59.777Z,16.70
2019-02-24T02:45:28.569Z,17.70
2019-02-24T02:47:57.253Z,18.12
2019-02-24T02:50:25.943Z,18.95
2019-02-24T02:52:54.648Z,17.52
2019-02-24T02:55:23.319Z,17.67
2019-02-24T02:57:52.491Z,18.23
2019-02-24T03:00:29.402Z,17.98
2019-02-24T03:02:58.232Z,18.02
2019-02-24T03:05:27.588Z,17.37
2019-02-24T03:08:13.538Z,18.05
2019-02-24T03:10:42.850Z,19.07
2019-02-24T03:13:11.893Z,17.05
2019-02-24T03:15:41.348Z,15.75
2019-02-24T03:18:10.472Z,16.67
2019-02-24T03:20:39.215Z,16.40
2019-02-24T03:23:07.939Z,16.80
2019-02-24T03:25:36.598Z,18.05
2019-02-24T03:28:05.663Z,17.67
2019-02-24T03:30:34.374Z,17.50
2019-02-24T03:33:03.060Z,16.02
2019-02-24T03:35:31.734Z,15.35
2019-02-24T03:38:00.390Z,16.32
2019-02-24T03:40:29.091Z,15.68
2019-02-24T03:42:57.743Z,16.05
2019-02-24T03:45:26.427Z,16.32
2019-02-24T03:47:55.124Z,17.02
2019-02-24T03:50:23.799Z,17.07
2019-02-24T03:52:52.918Z,16.50
2019-02-24T03:55:21.580Z,15.55
2019-02-24T03:57:50.268Z,15.23
2019-02-24T04:00:19.003Z,15.83
2019-02-24T04:02:47.798Z,14.80
2019-02-24T04:05:17.869Z,15.83
2019-02-24T04:07:46.486Z,16.53
2019-02-24T04:10:15.164Z,16.13
2019-02-24T04:12:44.141Z,16.02
2019-02-24T04:15:12.817Z,16.23
2019-02-24T04:17:41.508Z,16.87
2019-02-24T04:20:10.312Z,16.37
2019-02-24T04:22:39.016Z,17.17
2019-02-24T04:25:07.752Z,16.23
2019-02-24T04:27:36.461Z,17.20
2019-02-24T04:30:05.583Z,15.30
2019-02-24T04:32:34.654Z,15.55
2019-02-24T04:35:03.368Z,16.73
2019-02-24T04:37:32.016Z,17.87
2019-02-24T04:40:00.700Z,16.45
2019-02-24T04:42:29.335Z,15.80
2019-02-24T04:44:58.004Z,17.02
2019-02-24T04:47:26.755Z,16.75
2019-02-24T04:49:55.453Z,16.05
2019-02-24T04:52:24.349Z,16.67
2019-02-24T04:54:53.417Z,16.17
2019-02-24T04:57:22.112Z,15.95
2019-02-24T04:59:51.228Z,17.10
2019-02-24T05:02:20.248Z,15.48
2019-02-24T05:04:49.304Z,15.38
2019-02-24T05:07:18.005Z,14.95
2019-02-24T05:09:46.714Z,15.88
2019-02-24T05:12:15.720Z,15.78
2019-02-24T05:14:44.394Z,15.87
2019-02-24T05:17:13.184Z,16.23
2019-02-24T05:19:41.831Z,15.28
2019-02-24T05:22:10.515Z,15.38
2019-02-24T05:24:39.173Z,16.95
2019-02-24T05:27:07.861Z,16.73
2019-02-24T05:29:45.101Z,16.97
2019-02-24T05:32:07.212Z,15.95
2019-02-24T05:34:35.915Z,15.53
2019-02-24T05:37:04.578Z,15.88
2019-02-24T05:39:33.274Z,16.25
2019-02-24T05:42:01.928Z,16.42
2019-02-24T05:44:30.599Z,15.28
2019-02-24T05:46:59.262Z,14.87
2019-02-24T05:49:27.931Z,14.65
2019-02-24T05:51:56.632Z,15.35
2019-02-24T05:54:25.603Z,14.90
2019-02-24T05:56:54.283Z,15.10
2019-02-24T05:59:22.968Z,16.02
2019-02-24T06:01:51.639Z,15.68
2019-02-24T06:04:20.337Z,14.58
2019-02-24T06:06:49.014Z,13.68
2019-02-24T06:09:17.728Z,15.53
2019-02-24T06:11:46.469Z,15.50
2019-02-24T06:14:15.131Z,15.20
2019-02-24T06:16:43.791Z,15.20
2019-02-24T06:19:12.440Z,14.20
2019-02-24T06:21:41.139Z,15.58
2019-02-24T06:24:09.824Z,15.13
2019-02-24T06:26:38.796Z,15.20
2019-02-24T06:29:07.510Z,15.90
2019-02-24T06:31:36.196Z,15.90
2019-02-24T06:34:04.929Z,14.80
2019-02-24T06:36:33.574Z,15.72
2019-02-24T06:39:02.237Z,14.53
2019-02-24T06:41:30.877Z,14.80
2019-02-24T06:43:59.546Z,14.45
2019-02-24T06:46:28.248Z,13.93
2019-02-24T06:48:56.939Z,14.53
2019-02-24T06:51:25.616Z,14.13
2019-02-24T06:53:54.267Z,14.98
2019-02-24T06:56:22.927Z,14.30
2019-02-24T06:58:51.632Z,14.60
2019-02-24T07:01:20.599Z,14.15
2019-02-24T07:03:49.324Z,15.20
2019-02-24T07:06:18.251Z,14.43
2019-02-24T07:08:47.028Z,15.23
2019-02-24T07:11:15.915Z,13.45
2019-02-24T07:13:44.583Z,13.43
2019-02-24T07:16:13.227Z,14.65
2019-02-24T07:18:41.955Z,14.83
2019-02-24T07:21:11.153Z,14.47
2019-02-24T07:23:39.829Z,14.07
2019-02-24T07:26:08.514Z,14.53
2019-02-24T07:28:37.176Z,14.60
2019-02-24T07:31:06.092Z,13.53
2019-02-24T07:33:34.789Z,13.90
2019-02-24T07:36:03.747Z,13.45
2019-02-24T07:38:32.696Z,15.10
2019-02-24T07:41:01.393Z,13.25
2019-02-24T07:43:30.386Z,12.63
2019-02-24T07:45:59.020Z,13.60
2019-02-24T07:48:27.655Z,14.63
2019-02-24T07:50:56.311Z,13.58
2019-02-24T07:53:24.993Z,14.80
2019-02-24T07:55:53.666Z,14.37
2019-02-24T07:58:22.354Z,14.47
2019-02-24T08:00:51.036Z,14.70
2019-02-24T08:03:19.751Z,13.13
2019-02-24T08:05:48.412Z,14.40
2019-02-24T08:08:17.100Z,13.95
2019-02-24T08:10:45.766Z,14.87
2019-02-24T08:13:14.432Z,12.63
2019-02-24T08:15:43.067Z,14.70
2019-02-24T08:18:11.752Z,15.50
2019-02-24T08:20:40.382Z,16.10
2019-02-24T08:23:10.935Z,13.50
2019-02-24T08:25:39.434Z,13.70
2019-02-24T08:28:08.143Z,14.33
2019-02-24T08:30:41.687Z,14.50
2019-02-24T08:33:07.608Z,14.90
2019-02-24T08:35:36.316Z,13.70
2019-02-24T08:38:04.972Z,13.60
2019-02-24T08:40:33.577Z,15.30
2019-02-24T08:43:02.219Z,13.57
2019-02-24T08:45:30.941Z,13.90
2019-02-24T08:47:59.659Z,14.53
2019-02-24T08:50:28.335Z,14.23
2019-02-24T08:52:57.087Z,13.50
2019-02-24T08:55:25.807Z,13.83
2019-02-24T08:57:54.722Z,14.10
2019-02-24T09:00:23.423Z,12.87
2019-02-24T09:02:52.649Z,15.17
2019-02-24T09:05:21.476Z,13.83
2019-02-24T09:07:50.138Z,15.57
2019-02-24T09:10:18.759Z,16.60
2019-02-24T09:12:47.563Z,14.60
2019-02-24T09:15:16.250Z,13.47
2019-02-24T09:17:44.878Z,15.23
2019-02-24T09:20:13.846Z,13.90
2019-02-24T09:22:42.508Z,13.47
2019-02-24T09:25:11.260Z,13.60
2019-02-24T09:27:39.984Z,14.07
2019-02-24T09:30:09.311Z,15.40
2019-02-24T09:32:38.779Z,13.63
2019-02-24T09:35:08.757Z,14.57
2019-02-24T09:37:37.398Z,14.77
2019-02-24T09:40:07.268Z,16.07
2019-02-24T09:42:35.927Z,13.80
2019-02-24T09:45:05.523Z,15.10
2019-02-24T09:47:34.157Z,15.53
2019-02-24T09:50:02.808Z,13.90
2019-02-24T09:52:31.457Z,21.30
2019-02-24T09:55:00.435Z,14.10
2019-02-24T09:57:29.096Z,13.67
2019-02-24T09:59:57.775Z,13.97
2019-02-24T10:02:26.407Z,12.33
2019-02-24T10:04:55.063Z,12.73
2019-02-24T10:07:24.084Z,10.93
2019-02-24T10:09:52.721Z,11.67
2019-02-24T10:12:21.764Z,11.27
2019-02-24T10:14:50.498Z,11.60
2019-02-24T10:17:19.243Z,11.30
2019-02-24T10:19:47.856Z,11.33
2019-02-24T10:22:16.504Z,10.50
2019-02-24T10:24:45.256Z,11.27
2019-02-24T10:27:14.222Z,9.33
2019-02-24T10:29:42.884Z,10.50
2019-02-24T10:32:11.591Z,10.63
2019-02-24T10:34:40.210Z,11.87
2019-02-24T10:37:08.972Z,10.70
2019-02-24T10:39:37.612Z,11.70
2019-02-24T10:42:06.251Z,11.63
2019-02-24T10:44:34.944Z,11.53
2019-02-24T10:47:03.595Z,12.10
2019-02-24T10:49:32.292Z,12.10
2019-02-24T10:52:00.947Z,12.10
2019-02-24T10:54:29.598Z,12.40
2019-02-24T10:56:58.259Z,10.97
2019-02-24T10:59:26.928Z,12.70
2019-02-24T11:01:55.566Z,12.63
2019-02-24T11:04:24.243Z,11.63
2019-02-24T11:06:52.867Z,11.43
2019-02-24T11:09:21.550Z,11.83
2019-02-24T11:11:50.251Z,11.10
2019-02-24T11:14:18.992Z,10.23
2019-02-24T11:16:47.889Z,10.47
2019-02-24T11:19:16.595Z,10.80
2019-02-24T11:21:45.236Z,9.90
2019-02-24T11:24:13.885Z,11.17
2019-02-24T11:26:42.523Z,11.00
2019-02-24T11:29:11.264Z,10.23
2019-02-24T11:31:39.889Z,9.83
2019-02-24T11:34:08.575Z,10.43
2019-02-24T11:36:37.293Z,9.10
2019-02-24T11:39:06.960Z,9.40
2019-02-24T11:41:35.667Z,9.30
2019-02-24T11:44:04.485Z,9.40
2019-02-24T11:46:33.123Z,8.87
2019-02-24T11:49:01.786Z,9.00
2019-02-24T11:51:30.801Z,9.37
2019-02-24T11:53:59.467Z,10.00
2019-02-24T11:56:28.123Z,10.27
2019-02-24T11:58:56.912Z,10.53
2019-02-24T12:01:25.586Z,9.80
2019-02-24T12:03:54.275Z,10.33
2019-02-24T12:06:22.960Z,9.77
2019-02-24T12:08:51.651Z,9.47
2019-02-24T12:11:20.360Z,10.27
2019-02-24T12:13:49.017Z,10.47
2019-02-24T12:16:17.759Z,9.90
2019-02-24T12:18:46.405Z,10.40
2019-02-24T12:21:15.024Z,9.63
2019-02-24T12:23:44.071Z,9.70
2019-02-24T12:26:12.815Z,9.90
2019-02-24T12:28:41.512Z,9.90
2019-02-24T12:31:11.256Z,9.63
2019-02-24T12:33:39.916Z,10.80
2019-02-24T12:36:08.686Z,10.83
2019-02-24T12:38:37.407Z,9.83
2019-02-24T12:41:06.123Z,10.57
2019-02-24T12:43:34.735Z,10.13
2019-02-24T12:46:03.494Z,10.30
2019-02-24T12:48:32.481Z,10.40
2019-02-24T12:51:01.140Z,10.17
2019-02-24T12:53:29.757Z,10.93
2019-02-24T12:55:58.792Z,10.30
2019-02-24T12:58:27.485Z,10.67
2019-02-24T13:00:56.260Z,10.10
2019-02-24T13:03:25.008Z,10.50
2019-02-24T13:05:53.658Z,10.90
2019-02-24T13:08:22.278Z,11.97
2019-02-24T13:10:51.491Z,11.20
2019-02-24T13:13:20.103Z,9.87
2019-02-24T13:15:48.723Z,9.97
2019-02-24T13:18:17.339Z,10.83
2019-02-24T13:20:46.043Z,11.60
2019-02-24T13:23:14.748Z,10.00
2019-02-24T13:25:43.389Z,10.70
2019-02-24T13:28:12.022Z,11.20
2019-02-24T13:30:40.991Z,10.53
2019-02-24T13:33:09.623Z,10.70
2019-02-24T13:35:40.621Z,10.43
2019-02-24T13:38:09.779Z,11.10
2019-02-24T13:40:38.427Z,10.37
2019-02-24T13:43:07.043Z,10.60
2019-02-24T13:45:35.868Z,10.97
2019-02-24T13:48:04.642Z,10.50
2019-02-24T13:50:33.302Z,10.67
2019-02-24T13:53:04.072Z,10.40
2019-02-24T13:55:32.762Z,10.37
2019-02-24T13:58:01.431Z,9.60
2019-02-24T14:00:30.143Z,10.27
2019-02-24T14:02:58.825Z,10.33
2019-02-24T14:05:27.463Z,10.10
2019-02-24T14:07:56.103Z,9.63
2019-02-24T14:10:24.764Z,9.50
2019-02-24T14:12:53.382Z,9.97
2019-02-24T14:15:22.039Z,10.60
2019-02-24T14:17:50.669Z,10.83
2019-02-24T14:20:19.345Z,10.13
2019-02-24T14:22:48.096Z,10.13
2019-02-24T14:25:16.840Z,10.43
2019-02-24T14:27:45.529Z,9.33
2019-02-24T14:30:14.448Z,9.50
2019-02-24T14:32:44.233Z,9.30
2019-02-24T14:35:13.990Z,10.20
2019-02-24T14:37:42.676Z,10.40
2019-02-24T14:40:11.328Z,9.77
2019-02-24T14:42:39.962Z,10.17
2019-02-24T14:45:11.720Z,10.70
2019-02-24T14:47:40.360Z,9.90
2019-02-24T14:50:09.491Z,10.20
2019-02-24T14:52:38.136Z,10.87
2019-02-24T14:55:07.315Z,11.00
2019-02-24T14:57:35.947Z,10.87
2019-02-24T15:00:05.452Z,10.20
2019-02-24T15:02:42.158Z,11.23
2019-02-24T15:05:04.991Z,10.67
2019-02-24T15:07:33.631Z,10.80
2019-02-24T15:10:02.243Z,10.90
2019-02-24T15:12:31.430Z,12.63
2019-02-24T15:15:00.044Z,11.33
2019-02-24T15:17:28.704Z,11.53
2019-02-24T15:19:57.307Z,11.50
2019-02-24T15:22:25.955Z,11.30
2019-02-24T15:24:54.582Z,11.17
2019-02-24T15:27:23.250Z,11.60
2019-02-24T15:29:52.112Z,10.23
2019-02-24T15:32:20.728Z,10.77
2019-02-24T15:34:49.434Z,10.90
2019-02-24T15:37:18.073Z,10.90
2019-02-24T15:39:46.796Z,11.30
2019-02-24T15:42:15.749Z,11.10
2019-02-24T15:44:44.434Z,10.87
2019-02-24T15:47:13.072Z,10.40
2019-02-24T15:49:41.885Z,11.10
2019-02-24T15:52:10.696Z,10.90
2019-02-24T15:54:39.344Z,11.00
2019-02-24T15:57:07.979Z,10.33
2019-02-24T15:59:36.685Z,10.83
2019-02-24T16:02:05.314Z,11.13
2019-02-24T16:04:33.951Z,10.73
2019-02-24T16:07:02.580Z,11.13
2019-02-24T16:09:31.228Z,10.03
2019-02-24T16:11:59.872Z,11.27
2019-02-24T16:14:28.542Z,9.23
2019-02-24T16:16:57.177Z,10.10
2019-02-24T16:19:25.811Z,10.30
2019-02-24T16:21:54.466Z,10.10
2019-02-24T16:24:23.145Z,9.77
2019-02-24T16:26:51.777Z,9.93
2019-02-24T16:29:20.464Z,10.90
2019-02-24T16:31:49.141Z,9.63
2019-02-24T16:34:17.894Z,9.07
2019-02-24T16:36:46.828Z,9.97
2019-02-24T16:39:15.463Z,10.90
2019-02-24T16:41:44.360Z,13.07
2019-02-24T16:44:13.118Z,12.90
2019-02-24T16:46:41.924Z,12.63
2019-02-24T16:49:10.586Z,11.67
2019-02-24T16:51:39.235Z,12.47
2019-02-24T16:54:07.891Z,12.63
2019-02-24T16:56:36.567Z,14.33
2019-02-24T16:59:05.319Z,15.33
2019-02-24T17:01:33.938Z,13.63
2019-02-24T17:04:02.599Z,13.93
2019-02-24T17:06:31.219Z,14.20
2019-02-24T17:09:00.551Z,13.90
2019-02-24T17:11:30.283Z,15.40
2019-02-24T17:13:58.932Z,15.40
2019-02-24T17:16:27.614Z,15.17
2019-02-24T17:18:56.295Z,15.53
2019-02-24T17:21:24.937Z,15.03
2019-02-24T17:23:53.627Z,17.10
2019-02-24T17:26:22.270Z,17.00
2019-02-24T17:28:50.931Z,16.53
2019-02-24T17:31:27.868Z,16.10
2019-02-24T17:33:49.979Z,14.73
2019-02-24T17:36:18.739Z,16.40
2019-02-24T17:38:47.395Z,16.57
2019-02-24T17:41:16.025Z,17.47
2019-02-24T17:43:44.684Z,17.47
2019-02-24T17:46:13.326Z,16.30
2019-02-24T17:48:41.976Z,18.40
2019-02-24T17:51:10.617Z,18.10
2019-02-24T17:53:39.409Z,17.33
2019-02-24T17:56:08.135Z,16.90
2019-02-24T17:58:36.811Z,16.20
2019-02-24T18:01:05.918Z,16.50
2019-02-24T18:03:39.546Z,17.70
2019-02-24T18:06:04.959Z,17.67
2019-02-24T18:08:33.590Z,17.80
2019-02-24T18:11:02.220Z,19.70
2019-02-24T18:13:30.867Z,21.17
2019-02-24T18:15:59.548Z,19.00
2019-02-24T18:18:28.291Z,21.00
2019-02-24T18:20:59.176Z,22.60
2019-02-24T18:23:27.856Z,22.30
2019-02-24T18:25:56.650Z,22.37
2019-02-24T18:28:25.399Z,20.60
2019-02-24T18:30:54.130Z,23.30
2019-02-24T18:33:22.888Z,22.20
2019-02-24T18:35:51.586Z,23.20
2019-02-24T18:38:20.415Z,23.27
2019-02-24T18:40:49.276Z,23.50
2019-02-24T18:43:18.007Z,22.63
2019-02-24T18:45:47.003Z,24.43
2019-02-24T18:48:15.627Z,23.67
2019-02-24T18:50:44.412Z,23.80
2019-02-24T18:53:13.147Z,25.13
2019-02-24T18:55:41.855Z,24.00
2019-02-24T18:58:11.172Z,21.90
2019-02-24T19:00:39.842Z,22.70
2019-02-24T19:03:08.708Z,21.50
2019-02-24T19:05:37.431Z,21.37
2019-02-24T19:08:06.041Z,25.53
2019-02-24T19:10:34.701Z,23.27
2019-02-24T19:13:03.997Z,21.27
2019-02-24T19:15:32.606Z,19.20
2019-02-24T19:18:01.219Z,19.43
2019-02-24T19:20:29.879Z,19.10
2019-02-24T19:22:58.507Z,19.50
2019-02-24T19:25:27.179Z,19.10
2019-02-24T19:27:55.794Z,18.63
2019-02-24T19:30:24.448Z,19.80
2019-02-24T19:32:53.413Z,22.20
2019-02-24T19:35:22.128Z,23.60
2019-02-24T19:37:50.874Z,24.33
2019-02-24T19:40:20.436Z,21.50
2019-02-24T19:42:49.522Z,20.20
2019-02-24T19:45:18.437Z,21.70
2019-02-24T19:47:47.344Z,21.80
2019-02-24T19:50:16.682Z,22.00
2019-02-24T19:52:45.296Z,22.20
2019-02-24T19:55:14.162Z,22.77
2019-02-24T19:57:42.859Z,22.97
2019-02-24T20:00:15.896Z,21.67
2019-02-24T20:02:44.567Z,20.27
2019-02-24T20:05:13.212Z,20.00
2019-02-24T20:07:42.142Z,16.87
2019-02-24T20:10:11.528Z,19.50
2019-02-24T20:12:40.175Z,21.70
2019-02-24T20:15:10.942Z,20.43
2019-02-24T20:17:39.610Z,19.07
2019-02-24T20:20:09.127Z,17.37
2019-02-24T20:22:37.840Z,18.33
2019-02-24T20:25:07.103Z,17.20
2019-02-24T20:27:35.775Z,19.70
2019-02-24T20:30:06.116Z,18.70
2019-02-24T20:32:34.785Z,21.50
2019-02-24T20:35:06.166Z,21.80
2019-02-24T20:37:34.795Z,23.40
2019-02-24T20:40:03.660Z,22.93
2019-02-24T20:42:32.315Z,23.57
2019-02-24T20:45:01.016Z,21.10
2019-02-24T20:47:29.731Z,18.60
2019-02-24T20:49:58.432Z,20.43
2019-02-24T20:52:27.372Z,19.57
2019-02-24T20:54:56.023Z,18.30
2019-02-24T20:57:24.824Z,17.57
2019-02-24T20:59:53.490Z,18.60
2019-02-24T21:02:22.116Z,17.67
2019-02-24T21:04:50.803Z,18.43
2019-02-24T21:07:19.423Z,18.00
2019-02-24T21:09:48.135Z,19.00
2019-02-24T21:12:16.869Z,19.50
2019-02-24T21:14:45.569Z,21.30
2019-02-24T21:17:14.489Z,20.37
2019-02-24T21:19:43.347Z,21.43
2019-02-24T21:22:12.316Z,20.70
2019-02-24T21:24:41.129Z,20.97
2019-02-24T21:27:09.853Z,19.47
2019-02-24T21:29:38.615Z,20.70
2019-02-24T21:32:07.336Z,18.73
2019-02-24T21:34:36.062Z,22.07
2019-02-24T21:37:04.961Z,21.53
2019-02-24T21:39:33.601Z,20.33
2019-02-24T21:42:02.339Z,20.27
2019-02-24T21:44:31.110Z,20.50
2019-02-24T21:47:01.894Z,21.23
2019-02-24T21:49:31.655Z,20.50
2019-02-24T21:52:00.342Z,20.37
2019-02-24T21:54:28.974Z,19.73
2019-02-24T21:56:57.678Z,19.57
2019-02-24T21:59:26.308Z,19.20
2019-02-24T22:01:54.997Z,19.97
2019-02-24T22:04:23.894Z,18.90
2019-02-24T22:06:52.573Z,20.43
2019-02-24T22:09:21.352Z,18.80
2019-02-24T22:11:50.023Z,18.97
2019-02-24T22:14:18.660Z,18.80
2019-02-24T22:16:50.526Z,21.47
2019-02-24T22:19:19.269Z,20.20
2019-02-24T22:21:48.171Z,23.73
2019-02-24T22:24:17.064Z,23.23
2019-02-24T22:26:45.883Z,24.63
2019-02-24T22:29:14.498Z,23.93
2019-02-24T22:31:43.399Z,23.37
2019-02-24T22:34:12.002Z,23.63
2019-02-24T22:36:40.915Z,24.00
2019-02-24T22:39:09.603Z,21.67
2019-02-24T22:41:39.331Z,21.03
2019-02-24T22:44:07.943Z,20.20
2019-02-24T22:46:36.584Z,22.83
2019-02-24T22:49:05.212Z,23.90
2019-02-24T22:51:33.856Z,23.87
2019-02-24T22:54:02.955Z,21.83
2019-02-24T22:56:31.693Z,22.23
2019-02-24T22:59:00.308Z,21.97
2019-02-24T23:01:32.379Z,21.37
2019-02-24T23:04:09.508Z,20.80
2019-02-24T23:06:38.171Z,20.83
2019-02-24T23:09:10.729Z,20.63
2019-02-24T23:11:39.471Z,21.03
2019-02-24T23:14:08.096Z,20.53
2019-02-24T23:16:36.885Z,22.17
2019-02-24T23:19:05.742Z,24.23
2019-02-24T23:21:34.529Z,26.10
2019-02-24T23:24:03.340Z,23.70
2019-02-24T23:26:31.975Z,26.43
2019-02-24T23:29:01.235Z,27.00
2019-02-24T23:31:30.001Z,25.30
2019-02-24T23:33:58.735Z,24.33
2019-02-24T23:36:27.800Z,24.90
2019-02-24T23:38:56.467Z,24.27
2019-02-24T23:41:25.146Z,24.83
2019-02-24T23:43:54.255Z,25.73
2019-02-24T23:46:22.970Z,25.57
2019-02-24T23:48:51.723Z,26.30
2019-02-24T23:51:20.344Z,25.00
2019-02-24T23:53:49.059Z,26.03
2019-02-24T23:56:17.733Z,25.33
2019-02-24T23:58:46.393Z,23.90
